sensor_id;sensor_type;location;lat;lon;timestamp;temperature;humidity
9977;DHT22;5029;47.378;11.776;2022-08-19T00:01:43;16.00;99.90
9977;DHT22;5029;47.378;11.776;2022-08-19T00:06:54;15.80;99.90
9977;DHT22;5029;47.378;11.776;2022-08-19T00:12:01;15.50;99.90
9977;DHT22;5029;47.378;11.776;2022-08-19T00:17:08;15.30;99.90
9977;DHT22;5029;47.378;11.776;2022-08-19T00:22:13;15.20;99.90
9977;DHT22;5029;47.378;11.776;2022-08-19T00:27:20;15.20;99.90
9977;DHT22;5029;47.378;11.776;2022-08-19T00:32:29;15.20;99.90
9977;DHT22;5029;47.378;11.776;2022-08-19T00:37:35;15.50;99.90
9977;DHT22;5029;47.378;11.776;2022-08-19T00:42:40;15.30;99.90
9977;DHT22;5029;47.378;11.776;2022-08-19T00:48:00;15.20;99.90
9977;DHT22;5029;47.378;11.776;2022-08-19T00:53:30;15.00;99.90
9977;DHT22;5029;47.378;11.776;2022-08-19T00:58:45;15.10;99.90
9977;DHT22;5029;47.378;11.776;2022-08-19T01:04:08;15.10;99.90
9977;DHT22;5029;47.378;11.776;2022-08-19T01:09:26;15.20;99.90
9977;DHT22;5029;47.378;11.776;2022-08-19T01:14:31;15.10;99.90
9977;DHT22;5029;47.378;11.776;2022-08-19T01:19:38;15.20;99.90
9977;DHT22;5029;47.378;11.776;2022-08-19T01:24:51;15.40;99.90
9977;DHT22;5029;47.378;11.776;2022-08-19T01:30:16;15.40;99.90
9977;DHT22;5029;47.378;11.776;2022-08-19T01:35:50;15.60;99.90
9977;DHT22;5029;47.378;11.776;2022-08-19T01:47:18;15.70;99.90
9977;DHT22;5029;47.378;11.776;2022-08-19T01:52:43;15.30;99.90
9977;DHT22;5029;47.378;11.776;2022-08-19T01:58:46;15.60;99.90
9977;DHT22;5029;47.378;11.776;2022-08-19T02:16:22;15.40;99.90
9977;DHT22;5029;47.378;11.776;2022-08-19T02:21:42;15.20;99.90
9977;DHT22;5029;47.378;11.776;2022-08-19T02:27:07;15.30;99.90
9977;DHT22;5029;47.378;11.776;2022-08-19T02:32:30;15.50;99.90
9977;DHT22;5029;47.378;11.776;2022-08-19T02:37:46;15.60;99.90
9977;DHT22;5029;47.378;11.776;2022-08-19T02:43:23;15.70;99.90
9977;DHT22;5029;47.378;11.776;2022-08-19T02:49:09;15.60;99.90
9977;DHT22;5029;47.378;11.776;2022-08-19T02:54:27;15.70;99.90
9977;DHT22;5029;47.378;11.776;2022-08-19T02:59:32;15.70;99.90
9977;DHT22;5029;47.378;11.776;2022-08-19T03:04:39;15.60;99.90
9977;DHT22;5029;47.378;11.776;2022-08-19T03:09:44;15.20;99.90
9977;DHT22;5029;47.378;11.776;2022-08-19T03:14:48;15.30;99.90
9977;DHT22;5029;47.378;11.776;2022-08-19T03:19:55;15.30;99.90
9977;DHT22;5029;47.378;11.776;2022-08-19T03:24:59;15.30;99.90
9977;DHT22;5029;47.378;11.776;2022-08-19T03:30:04;15.10;99.90
9977;DHT22;5029;47.378;11.776;2022-08-19T03:35:14;15.10;99.90
9977;DHT22;5029;47.378;11.776;2022-08-19T03:40:19;15.00;99.90
9977;DHT22;5029;47.378;11.776;2022-08-19T05:56:32;15.50;99.90
9977;DHT22;5029;47.378;11.776;2022-08-19T06:01:40;15.30;99.90
9977;DHT22;5029;47.378;11.776;2022-08-19T06:06:53;15.30;99.90
9977;DHT22;5029;47.378;11.776;2022-08-19T06:12:01;15.50;99.90
9977;DHT22;5029;47.378;11.776;2022-08-19T06:17:06;15.60;99.90
9977;DHT22;5029;47.378;11.776;2022-08-19T06:22:15;15.80;99.90
9977;DHT22;5029;47.378;11.776;2022-08-19T06:27:38;15.90;99.90
9977;DHT22;5029;47.378;11.776;2022-08-19T06:33:20;15.70;99.90
9977;DHT22;5029;47.378;11.776;2022-08-19T06:38:25;15.80;99.90
9977;DHT22;5029;47.378;11.776;2022-08-19T06:43:30;15.90;99.90
9977;DHT22;5029;47.378;11.776;2022-08-19T06:48:35;15.70;99.90
9977;DHT22;5029;47.378;11.776;2022-08-19T06:59:24;15.90;99.90
9977;DHT22;5029;47.378;11.776;2022-08-19T07:04:31;15.80;99.90
9977;DHT22;5029;47.378;11.776;2022-08-19T07:10:06;15.90;99.90
9977;DHT22;5029;47.378;11.776;2022-08-19T07:15:12;16.00;99.90
9977;DHT22;5029;47.378;11.776;2022-08-19T07:20:20;16.00;99.90
9977;DHT22;5029;47.378;11.776;2022-08-19T07:25:29;15.80;99.90
9977;DHT22;5029;47.378;11.776;2022-08-19T07:30:37;16.00;99.90
9977;DHT22;5029;47.378;11.776;2022-08-19T07:35:44;15.90;99.90
9977;DHT22;5029;47.378;11.776;2022-08-19T07:40:48;15.80;99.90
9977;DHT22;5029;47.378;11.776;2022-08-19T07:45:55;15.70;99.90
9977;DHT22;5029;47.378;11.776;2022-08-19T07:51:06;16.00;99.90
9977;DHT22;5029;47.378;11.776;2022-08-19T07:56:14;16.00;99.90
9977;DHT22;5029;47.378;11.776;2022-08-19T08:01:23;15.70;99.90
9977;DHT22;5029;47.378;11.776;2022-08-19T08:11:51;16.20;99.90
9977;DHT22;5029;47.378;11.776;2022-08-19T08:16:57;17.00;99.90
9977;DHT22;5029;47.378;11.776;2022-08-19T08:22:02;16.90;99.90
9977;DHT22;5029;47.378;11.776;2022-08-19T08:27:31;17.10;99.90
9977;DHT22;5029;47.378;11.776;2022-08-19T08:38:49;17.50;99.90
9977;DHT22;5029;47.378;11.776;2022-08-19T10:26:40;20.20;99.90
9977;DHT22;5029;47.378;11.776;2022-08-19T10:31:58;20.10;99.90
9977;DHT22;5029;47.378;11.776;2022-08-19T10:37:15;20.50;99.90
9977;DHT22;5029;47.378;11.776;2022-08-19T10:43:14;20.60;99.90
9977;DHT22;5029;47.378;11.776;2022-08-19T10:48:18;21.10;99.90
9977;DHT22;5029;47.378;11.776;2022-08-19T10:53:22;21.90;99.90
9977;DHT22;5029;47.378;11.776;2022-08-19T10:58:29;22.00;99.90
9977;DHT22;5029;47.378;11.776;2022-08-19T11:03:33;22.10;99.90
9977;DHT22;5029;47.378;11.776;2022-08-19T11:08:38;22.30;99.90
9977;DHT22;5029;47.378;11.776;2022-08-19T11:20:42;22.30;99.90
9977;DHT22;5029;47.378;11.776;2022-08-19T11:26:02;22.80;99.90
9977;DHT22;5029;47.378;11.776;2022-08-19T11:38:51;22.10;99.90
9977;DHT22;5029;47.378;11.776;2022-08-19T11:44:31;21.60;99.90
9977;DHT22;5029;47.378;11.776;2022-08-19T11:50:06;21.60;99.90
9977;DHT22;5029;47.378;11.776;2022-08-19T11:55:12;21.50;99.90
9977;DHT22;5029;47.378;11.776;2022-08-19T12:00:21;21.10;99.90
9977;DHT22;5029;47.378;11.776;2022-08-19T12:05:49;21.00;99.90
9977;DHT22;5029;47.378;11.776;2022-08-19T12:11:09;21.50;99.90
9977;DHT22;5029;47.378;11.776;2022-08-19T12:16:19;22.20;99.90
9977;DHT22;5029;47.378;11.776;2022-08-19T12:21:27;21.80;99.90
9977;DHT22;5029;47.378;11.776;2022-08-19T12:26:33;21.60;99.90
9977;DHT22;5029;47.378;11.776;2022-08-19T12:31:55;21.90;99.90
9977;DHT22;5029;47.378;11.776;2022-08-19T12:37:06;22.00;99.90
9977;DHT22;5029;47.378;11.776;2022-08-19T12:42:27;21.90;99.90
9977;DHT22;5029;47.378;11.776;2022-08-19T12:47:32;21.40;99.90
9977;DHT22;5029;47.378;11.776;2022-08-19T12:52:42;21.60;99.90
9977;DHT22;5029;47.378;11.776;2022-08-19T15:49:47;16.80;99.90
9977;DHT22;5029;47.378;11.776;2022-08-19T15:55:03;16.60;99.90
9977;DHT22;5029;47.378;11.776;2022-08-19T16:00:08;16.30;99.90
9977;DHT22;5029;47.378;11.776;2022-08-19T16:05:30;16.40;99.90
9977;DHT22;5029;47.378;11.776;2022-08-19T16:10:51;16.20;99.90
9977;DHT22;5029;47.378;11.776;2022-08-19T16:15:55;16.00;99.90
9977;DHT22;5029;47.378;11.776;2022-08-19T16:21:00;15.50;99.90
9977;DHT22;5029;47.378;11.776;2022-08-19T16:26:04;15.60;99.90
9977;DHT22;5029;47.378;11.776;2022-08-19T16:31:08;16.00;99.90
9977;DHT22;5029;47.378;11.776;2022-08-19T16:36:13;16.20;99.90
9977;DHT22;5029;47.378;11.776;2022-08-19T16:41:19;15.50;99.90
9977;DHT22;5029;47.378;11.776;2022-08-19T16:46:23;15.40;99.90
9977;DHT22;5029;47.378;11.776;2022-08-19T16:51:30;15.00;99.90
9977;DHT22;5029;47.378;11.776;2022-08-19T16:56:35;15.00;99.90
9977;DHT22;5029;47.378;11.776;2022-08-19T17:01:38;15.00;99.90
9977;DHT22;5029;47.378;11.776;2022-08-19T17:06:45;14.90;99.90
9977;DHT22;5029;47.378;11.776;2022-08-19T17:11:49;14.70;99.90
9977;DHT22;5029;47.378;11.776;2022-08-19T17:16:53;14.50;99.90
9977;DHT22;5029;47.378;11.776;2022-08-19T17:21:58;14.50;99.90
9977;DHT22;5029;47.378;11.776;2022-08-19T17:27:02;14.50;99.90
9977;DHT22;5029;47.378;11.776;2022-08-19T17:32:06;14.40;99.90
9977;DHT22;5029;47.378;11.776;2022-08-19T17:37:12;14.40;99.90
9977;DHT22;5029;47.378;11.776;2022-08-19T17:42:17;14.40;99.90
9977;DHT22;5029;47.378;11.776;2022-08-19T17:47:21;14.40;99.90
9977;DHT22;5029;47.378;11.776;2022-08-19T17:52:26;14.40;99.90
9977;DHT22;5029;47.378;11.776;2022-08-19T17:57:29;14.50;99.90
9977;DHT22;5029;47.378;11.776;2022-08-19T18:02:33;14.40;99.90
9977;DHT22;5029;47.378;11.776;2022-08-19T18:07:39;14.30;99.90
9977;DHT22;5029;47.378;11.776;2022-08-19T18:12:45;14.60;99.90
9977;DHT22;5029;47.378;11.776;2022-08-19T18:17:49;14.80;99.90
9977;DHT22;5029;47.378;11.776;2022-08-19T18:22:54;14.80;99.90
9977;DHT22;5029;47.378;11.776;2022-08-19T18:28:20;14.90;99.90
9977;DHT22;5029;47.378;11.776;2022-08-19T18:33:25;14.70;99.90
9977;DHT22;5029;47.378;11.776;2022-08-19T18:38:30;14.60;99.90
9977;DHT22;5029;47.378;11.776;2022-08-19T18:43:52;14.90;99.90
9977;DHT22;5029;47.378;11.776;2022-08-19T18:49:19;14.90;99.90
9977;DHT22;5029;47.378;11.776;2022-08-19T18:54:36;15.10;99.90
9977;DHT22;5029;47.378;11.776;2022-08-19T19:05:36;15.10;99.90
9977;DHT22;5029;47.378;11.776;2022-08-19T21:45:56;14.90;99.90
